Terminal Aerodrome Forecast
Issued by NWS Riverton, WY

Home | Current Version | Previous Version | Text Only | Print | Product List | Glossary On
Versions: 1 2 3 4 5 6 7 8 9 10 11 12 13
187
FTUS45 KRIW 172330
TAFRIW
TAF
KRIW 172330Z 1800/1824 21010KT P6SM SCT150 BKN250
     FM180300 29009KT P6SM SCT150 BKN250
     FM180900 VRB06KT P6SM FEW250=

USA.gov is the U.S. government's official web portal to all federal, state and local government web resources and services.